Aviation Digital Data Service (ADDS)

Output produced by METARs form (0648 UTC 20 October 2018)
found at http://www.aviationweather.gov/metar/data/
 
HDAM 200500Z 11011KT 9999 SCT023 SCT133 31/26 Q1014
HDAM 200500Z 2006/2106 10010KT 9999 SCT020 SCT030 
     BECMG 2015/2018 VRB03KT SCT020 
     BECMG 2100/2106 08010KT SHRA SCT020 BKN030